sensor_id;sensor_type;location;lat;lon;timestamp;pressure;altitude;pressure_sealevel;temperature;humidity
44001;BME280;29660;42.892;24.710;2022-08-01T00:00:28;96624.13;;;16.53;94.44
44001;BME280;29660;42.892;24.710;2022-08-01T00:05:30;96759.38;;;17.40;93.07
44001;BME280;29660;42.892;24.710;2022-08-01T00:10:33;96570.78;;;16.09;93.61
44001;BME280;29660;42.892;24.710;2022-08-01T00:15:35;96779.72;;;17.50;92.66
44001;BME280;29660;42.892;24.710;2022-08-01T00:20:37;96832.66;;;17.67;93.67
44001;BME280;29660;42.892;24.710;2022-08-01T00:25:39;96594.00;;;16.26;93.47
44001;BME280;29660;42.892;24.710;2022-08-01T00:30:41;96599.16;;;16.19;93.79
44001;BME280;29660;42.892;24.710;2022-08-01T00:35:43;96558.28;;;15.92;93.00
44001;BME280;29660;42.892;24.710;2022-08-01T00:40:45;96587.47;;;16.15;93.09
44001;BME280;29660;42.892;24.710;2022-08-01T00:45:48;96508.38;;;15.50;94.41
44001;BME280;29660;42.892;24.710;2022-08-01T00:50:50;96541.78;;;15.61;94.28
44001;BME280;29660;42.892;24.710;2022-08-01T00:55:53;96586.09;;;15.97;93.25
44001;BME280;29660;42.892;24.710;2022-08-01T01:00:55;96757.31;;;17.01;92.71
44001;BME280;29660;42.892;24.710;2022-08-01T01:06:13;96745.97;;;16.95;94.24
44001;BME280;29660;42.892;24.710;2022-08-01T01:11:25;96737.97;;;16.74;93.84
44001;BME280;29660;42.892;24.710;2022-08-01T01:16:47;96484.63;;;15.18;94.02
44001;BME280;29660;42.892;24.710;2022-08-01T01:27:50;96787.16;;;16.96;93.95
44001;BME280;29660;42.892;24.710;2022-08-01T01:32:54;96752.56;;;16.85;93.53
44001;BME280;29660;42.892;24.710;2022-08-01T01:38:25;96736.31;;;16.61;94.33
44001;BME280;29660;42.892;24.710;2022-08-01T01:43:25;96691.78;;;16.30;94.43
44001;BME280;29660;42.892;24.710;2022-08-01T01:48:29;96714.34;;;16.38;94.55
44001;BME280;29660;42.892;24.710;2022-08-01T01:53:33;96513.19;;;15.23;92.29
44001;BME280;29660;42.892;24.710;2022-08-01T01:58:37;96554.06;;;15.50;92.87
44001;BME280;29660;42.892;24.710;2022-08-01T02:03:43;96477.22;;;14.94;92.54
44001;BME280;29660;42.892;24.710;2022-08-01T02:08:46;96698.91;;;16.14;94.50
44001;BME280;29660;42.892;24.710;2022-08-01T02:13:57;96714.22;;;16.34;94.12
44001;BME280;29660;42.892;24.710;2022-08-01T02:19:00;96496.19;;;14.89;94.79
44001;BME280;29660;42.892;24.710;2022-08-01T02:24:10;96497.50;;;14.83;94.21
44001;BME280;29660;42.892;24.710;2022-08-01T02:29:19;96680.06;;;16.14;94.04
44001;BME280;29660;42.892;24.710;2022-08-01T02:34:24;96437.41;;;14.55;92.44
44001;BME280;29660;42.892;24.710;2022-08-01T02:39:30;96479.00;;;14.61;92.67
44001;BME280;29660;42.892;24.710;2022-08-01T02:44:37;96459.50;;;14.52;94.64
44001;BME280;29660;42.892;24.710;2022-08-01T02:49:42;96413.72;;;14.18;92.73
44001;BME280;29660;42.892;24.710;2022-08-01T02:54:48;96617.03;;;15.40;91.92
44001;BME280;29660;42.892;24.710;2022-08-01T02:59:52;96690.25;;;15.87;92.01
44001;BME280;29660;42.892;24.710;2022-08-01T03:04:57;96674.72;;;15.72;91.81
44001;BME280;29660;42.892;24.710;2022-08-01T03:10:01;96713.81;;;15.90;92.20
44001;BME280;29660;42.892;24.710;2022-08-01T03:15:04;96498.78;;;14.47;91.59
44001;BME280;29660;42.892;24.710;2022-08-01T03:20:08;96698.66;;;15.65;91.32
44001;BME280;29660;42.892;24.710;2022-08-01T03:25:13;96510.66;;;14.46;94.64
44001;BME280;29660;42.892;24.710;2022-08-01T03:30:16;96700.38;;;15.61;96.31
44001;BME280;29660;42.892;24.710;2022-08-01T03:35:20;96261.44;;;12.67;96.51
44001;BME280;29660;42.892;24.710;2022-08-01T03:40:26;96583.84;;;14.94;95.22
44001;BME280;29660;42.892;24.710;2022-08-01T03:45:40;96718.81;;;16.01;94.07
44001;BME280;29660;42.892;24.710;2022-08-01T03:50:45;96416.78;;;14.67;89.86
44001;BME280;29660;42.892;24.710;2022-08-01T03:55:49;96704.47;;;17.57;83.04
44001;BME280;29660;42.892;24.710;2022-08-01T04:00:52;96642.28;;;18.34;75.08
44001;BME280;29660;42.892;24.710;2022-08-01T04:05:55;96690.81;;;19.54;70.75
44001;BME280;29660;42.892;24.710;2022-08-01T04:10:57;96509.06;;;19.29;66.74
44001;BME280;29660;42.892;24.710;2022-08-01T04:16:00;96642.47;;;20.92;60.04
44001;BME280;29660;42.892;24.710;2022-08-01T04:21:02;96615.16;;;21.30;56.83
44001;BME280;29660;42.892;24.710;2022-08-01T04:26:05;96424.59;;;20.24;56.39
44001;BME280;29660;42.892;24.710;2022-08-01T04:31:08;96485.50;;;20.83;55.01
44001;BME280;29660;42.892;24.710;2022-08-01T04:36:12;96670.66;;;21.90;56.74
44001;BME280;29660;42.892;24.710;2022-08-01T04:41:17;96271.44;;;19.47;56.04
44001;BME280;29660;42.892;24.710;2022-08-01T04:46:20;96435.91;;;20.79;54.59
44001;BME280;29660;42.892;24.710;2022-08-01T04:51:23;96650.13;;;22.22;56.15
44001;BME280;29660;42.892;24.710;2022-08-01T04:56:26;96452.00;;;20.95;55.41
44001;BME280;29660;42.892;24.710;2022-08-01T05:01:28;96484.75;;;21.13;54.21
44001;BME280;29660;42.892;24.710;2022-08-01T05:06:30;96665.00;;;22.36;52.41
44001;BME280;29660;42.892;24.710;2022-08-01T05:11:32;96620.69;;;21.64;54.21
44001;BME280;29660;42.892;24.710;2022-08-01T05:16:34;96585.56;;;21.22;55.29
44001;BME280;29660;42.892;24.710;2022-08-01T05:21:36;96666.16;;;21.21;59.24
44001;BME280;29660;42.892;24.710;2022-08-01T05:26:39;96415.97;;;19.92;59.42
44001;BME280;29660;42.892;24.710;2022-08-01T05:31:41;96596.28;;;21.38;60.49
44001;BME280;29660;42.892;24.710;2022-08-01T05:36:44;96442.22;;;20.37;60.43
44001;BME280;29660;42.892;24.710;2022-08-01T05:41:46;96430.91;;;20.31;60.42
44001;BME280;29660;42.892;24.710;2022-08-01T05:46:48;96671.13;;;21.95;61.20
44001;BME280;29660;42.892;24.710;2022-08-01T05:51:50;96680.38;;;22.21;62.22
44001;BME280;29660;42.892;24.710;2022-08-01T05:56:52;96600.75;;;21.83;60.85
44001;BME280;29660;42.892;24.710;2022-08-01T06:01:54;96623.97;;;22.11;59.82
44001;BME280;29660;42.892;24.710;2022-08-01T06:06:56;96627.00;;;22.39;55.81
44001;BME280;29660;42.892;24.710;2022-08-01T06:11:58;96388.63;;;21.10;54.11
44001;BME280;29660;42.892;24.710;2022-08-01T06:17:00;96661.88;;;23.08;46.78
44001;BME280;29660;42.892;24.710;2022-08-01T06:22:02;96421.75;;;21.60;46.25
44001;BME280;29660;42.892;24.710;2022-08-01T06:27:04;96475.91;;;21.83;45.39
44001;BME280;29660;42.892;24.710;2022-08-01T06:32:06;96425.44;;;21.78;44.53
44001;BME280;29660;42.892;24.710;2022-08-01T06:37:09;96484.22;;;22.42;44.57
44001;BME280;29660;42.892;24.710;2022-08-01T06:42:11;96497.69;;;22.83;43.42
44001;BME280;29660;42.892;24.710;2022-08-01T06:47:13;96431.31;;;22.84;42.25
44001;BME280;29660;42.892;24.710;2022-08-01T06:52:15;96595.88;;;23.91;41.23
44001;BME280;29660;42.892;24.710;2022-08-01T06:57:17;96654.78;;;24.35;40.94
44001;BME280;29660;42.892;24.710;2022-08-01T07:02:19;96464.28;;;23.59;40.94
44001;BME280;29660;42.892;24.710;2022-08-01T07:07:21;96465.91;;;23.74;40.19
44001;BME280;29660;42.892;24.710;2022-08-01T07:12:23;96599.97;;;24.69;38.35
44001;BME280;29660;42.892;24.710;2022-08-01T07:17:25;96480.13;;;23.32;39.24
44001;BME280;29660;42.892;24.710;2022-08-01T07:22:27;96673.97;;;24.67;38.40
44001;BME280;29660;42.892;24.710;2022-08-01T07:27:29;96642.84;;;24.97;38.77
44001;BME280;29660;42.892;24.710;2022-08-01T07:32:31;96665.03;;;24.74;38.39
44001;BME280;29660;42.892;24.710;2022-08-01T07:37:34;96632.69;;;24.80;39.31
44001;BME280;29660;42.892;24.710;2022-08-01T07:42:43;96648.72;;;25.13;38.51
44001;BME280;29660;42.892;24.710;2022-08-01T07:47:47;96476.47;;;24.08;38.23
44001;BME280;29660;42.892;24.710;2022-08-01T07:52:51;96567.22;;;24.40;38.53
44001;BME280;29660;42.892;24.710;2022-08-01T07:57:53;96452.56;;;23.44;38.56
44001;BME280;29660;42.892;24.710;2022-08-01T08:02:55;96667.44;;;25.11;39.69
44001;BME280;29660;42.892;24.710;2022-08-01T08:08:07;96569.16;;;24.40;38.92
44001;BME280;29660;42.892;24.710;2022-08-01T08:13:10;96669.34;;;25.54;38.86
44001;BME280;29660;42.892;24.710;2022-08-01T08:18:12;96614.38;;;25.41;38.17
44001;BME280;29660;42.892;24.710;2022-08-01T08:23:14;96460.91;;;24.51;38.58
44001;BME280;29660;42.892;24.710;2022-08-01T08:28:42;96605.84;;;25.25;38.39
44001;BME280;29660;42.892;24.710;2022-08-01T08:33:44;96407.19;;;23.98;38.42
44001;BME280;29660;42.892;24.710;2022-08-01T08:38:46;96475.69;;;24.75;38.28
44001;BME280;29660;42.892;24.710;2022-08-01T08:43:48;96495.94;;;24.92;38.39
44001;BME280;29660;42.892;24.710;2022-08-01T08:48:51;96619.41;;;25.53;38.67
44001;BME280;29660;42.892;24.710;2022-08-01T08:53:55;96676.34;;;25.90;38.38
44001;BME280;29660;42.892;24.710;2022-08-01T08:58:57;96627.97;;;25.69;38.85
44001;BME280;29660;42.892;24.710;2022-08-01T09:04:00;96680.31;;;26.66;38.36
44001;BME280;29660;42.892;24.710;2022-08-01T09:09:04;96601.03;;;25.71;37.13
44001;BME280;29660;42.892;24.710;2022-08-01T09:19:09;96457.00;;;24.73;37.26
44001;BME280;29660;42.892;24.710;2022-08-01T09:24:17;96668.56;;;25.78;37.54
44001;BME280;29660;42.892;24.710;2022-08-01T09:29:30;96659.53;;;25.92;37.75
44001;BME280;29660;42.892;24.710;2022-08-01T09:34:39;96443.31;;;24.91;37.84
44001;BME280;29660;42.892;24.710;2022-08-01T09:39:41;96621.31;;;25.74;37.95
44001;BME280;29660;42.892;24.710;2022-08-01T09:44:45;96430.16;;;24.54;37.68
44001;BME280;29660;42.892;24.710;2022-08-01T09:49:56;96648.59;;;25.95;37.52
44001;BME280;29660;42.892;24.710;2022-08-01T09:55:03;96670.09;;;25.90;38.05
44001;BME280;29660;42.892;24.710;2022-08-01T10:00:17;96473.72;;;25.11;36.90
44001;BME280;29660;42.892;24.710;2022-08-01T10:05:32;96673.75;;;26.53;37.01
44001;BME280;29660;42.892;24.710;2022-08-01T10:10:38;96456.94;;;25.02;37.33
44001;BME280;29660;42.892;24.710;2022-08-01T10:15:40;96428.09;;;25.01;37.18
44001;BME280;29660;42.892;24.710;2022-08-01T10:20:43;96658.91;;;27.06;36.45
44001;BME280;29660;42.892;24.710;2022-08-01T10:25:47;96469.94;;;25.79;35.85
44001;BME280;29660;42.892;24.710;2022-08-01T10:30:51;96641.69;;;27.09;35.76
44001;BME280;29660;42.892;24.710;2022-08-01T10:35:54;96469.06;;;26.44;35.41
44001;BME280;29660;42.892;24.710;2022-08-01T10:40:57;96631.66;;;27.82;35.31
44001;BME280;29660;42.892;24.710;2022-08-01T10:46:02;96560.97;;;27.62;34.53
44001;BME280;29660;42.892;24.710;2022-08-01T10:51:05;96607.25;;;27.57;34.88
44001;BME280;29660;42.892;24.710;2022-08-01T10:56:19;96653.53;;;27.48;35.20
44001;BME280;29660;42.892;24.710;2022-08-01T11:01:23;96658.00;;;27.69;35.27
44001;BME280;29660;42.892;24.710;2022-08-01T11:33:51;96629.56;;;28.24;33.86
44001;BME280;29660;42.892;24.710;2022-08-01T11:44:05;96640.84;;;28.29;34.36
44001;BME280;29660;42.892;24.710;2022-08-01T11:49:26;96620.00;;;28.35;33.40
44001;BME280;29660;42.892;24.710;2022-08-01T11:54:44;96410.66;;;27.37;34.33
44001;BME280;29660;42.892;24.710;2022-08-01T11:59:49;96596.09;;;28.36;34.33
44001;BME280;29660;42.892;24.710;2022-08-01T12:05:11;96550.03;;;28.54;33.45
44001;BME280;29660;42.892;24.710;2022-08-01T12:10:19;96258.06;;;26.84;33.11
44001;BME280;29660;42.892;24.710;2022-08-01T12:15:23;96617.56;;;28.99;34.02
44001;BME280;29660;42.892;24.710;2022-08-01T12:20:31;96608.69;;;28.60;33.92
44001;BME280;29660;42.892;24.710;2022-08-01T12:25:35;96364.66;;;27.25;34.36
44001;BME280;29660;42.892;24.710;2022-08-01T12:30:37;96600.31;;;28.44;34.19
44001;BME280;29660;42.892;24.710;2022-08-01T12:35:40;96598.59;;;28.27;33.89
44001;BME280;29660;42.892;24.710;2022-08-01T12:40:45;96397.34;;;27.05;34.45
44001;BME280;29660;42.892;24.710;2022-08-01T12:45:50;96575.34;;;28.08;34.08
44001;BME280;29660;42.892;24.710;2022-08-01T12:50:56;96392.34;;;27.00;34.13
44001;BME280;29660;42.892;24.710;2022-08-01T12:56:00;96359.44;;;27.04;33.91
44001;BME280;29660;42.892;24.710;2022-08-01T13:01:06;96607.25;;;28.52;34.64
44001;BME280;29660;42.892;24.710;2022-08-01T13:06:11;96595.34;;;28.35;34.36
44001;BME280;29660;42.892;24.710;2022-08-01T13:11:16;96406.16;;;27.24;34.93
44001;BME280;29660;42.892;24.710;2022-08-01T13:16:25;96580.38;;;28.67;34.12
44001;BME280;29660;42.892;24.710;2022-08-01T13:21:55;96510.88;;;27.96;34.59
44001;BME280;29660;42.892;24.710;2022-08-01T13:27:01;96536.63;;;27.72;34.84
44001;BME280;29660;42.892;24.710;2022-08-01T13:32:19;96570.16;;;27.49;35.16
44001;BME280;29660;42.892;24.710;2022-08-01T13:37:30;96395.53;;;26.57;34.59
44001;BME280;29660;42.892;24.710;2022-08-01T13:42:33;96346.09;;;26.37;34.36
44001;BME280;29660;42.892;24.710;2022-08-01T13:47:36;96293.53;;;25.78;35.11
44001;BME280;29660;42.892;24.710;2022-08-01T13:52:38;96318.41;;;26.32;33.26
44001;BME280;29660;42.892;24.710;2022-08-01T13:57:40;96339.09;;;26.74;34.16
44001;BME280;29660;42.892;24.710;2022-08-01T14:02:42;96336.91;;;26.58;33.58
44001;BME280;29660;42.892;24.710;2022-08-01T14:07:44;96299.53;;;26.07;33.56
44001;BME280;29660;42.892;24.710;2022-08-01T14:12:47;96532.91;;;27.55;34.08
44001;BME280;29660;42.892;24.710;2022-08-01T14:17:49;96556.19;;;28.04;34.10
44001;BME280;29660;42.892;24.710;2022-08-01T14:22:52;96512.19;;;28.15;33.66
44001;BME280;29660;42.892;24.710;2022-08-01T14:27:54;96474.78;;;28.01;34.02
44001;BME280;29660;42.892;24.710;2022-08-01T14:32:56;96511.81;;;28.40;33.94
44001;BME280;29660;42.892;24.710;2022-08-01T14:37:58;96554.09;;;28.16;33.77
44001;BME280;29660;42.892;24.710;2022-08-01T14:43:00;96572.53;;;28.42;33.41
44001;BME280;29660;42.892;24.710;2022-08-01T14:48:03;96504.88;;;28.05;33.23
44001;BME280;29660;42.892;24.710;2022-08-01T14:53:05;96573.09;;;28.30;33.43
44001;BME280;29660;42.892;24.710;2022-08-01T14:58:07;96271.13;;;26.35;33.90
44001;BME280;29660;42.892;24.710;2022-08-01T15:03:09;96302.38;;;26.72;34.41
44001;BME280;29660;42.892;24.710;2022-08-01T15:08:11;96378.56;;;27.38;33.25
44001;BME280;29660;42.892;24.710;2022-08-01T15:13:13;96352.84;;;27.32;33.90
44001;BME280;29660;42.892;24.710;2022-08-01T15:18:15;96545.97;;;28.62;33.12
44001;BME280;29660;42.892;24.710;2022-08-01T15:23:17;96325.81;;;27.03;33.24
44001;BME280;29660;42.892;24.710;2022-08-01T15:28:19;96353.38;;;26.89;33.76
44001;BME280;29660;42.892;24.710;2022-08-01T15:33:21;96365.28;;;26.72;33.74
44001;BME280;29660;42.892;24.710;2022-08-01T15:38:23;96578.84;;;28.08;34.59
44001;BME280;29660;42.892;24.710;2022-08-01T15:43:25;96344.97;;;26.31;35.02
44001;BME280;29660;42.892;24.710;2022-08-01T15:48:28;96353.13;;;26.38;34.79
44001;BME280;29660;42.892;24.710;2022-08-01T15:53:30;96390.63;;;26.38;35.27
44001;BME280;29660;42.892;24.710;2022-08-01T15:58:32;96552.75;;;27.32;36.12
44001;BME280;29660;42.892;24.710;2022-08-01T16:03:34;96545.47;;;27.14;35.74
44001;BME280;29660;42.892;24.710;2022-08-01T16:08:36;96535.78;;;27.03;35.67
44001;BME280;29660;42.892;24.710;2022-08-01T16:13:38;96532.59;;;27.11;35.36
44001;BME280;29660;42.892;24.710;2022-08-01T16:18:41;96405.69;;;26.08;36.29
44001;BME280;29660;42.892;24.710;2022-08-01T16:23:44;96304.81;;;25.28;36.42
44001;BME280;29660;42.892;24.710;2022-08-01T16:28:46;96186.81;;;24.43;36.71
44001;BME280;29660;42.892;24.710;2022-08-01T16:33:49;96585.19;;;26.88;36.97
44001;BME280;29660;42.892;24.710;2022-08-01T16:38:55;96542.88;;;26.52;37.99
44001;BME280;29660;42.892;24.710;2022-08-01T16:43:57;96581.03;;;26.70;37.75
44001;BME280;29660;42.892;24.710;2022-08-01T16:49:00;96379.34;;;25.17;37.86
44001;BME280;29660;42.892;24.710;2022-08-01T16:54:03;96443.44;;;25.61;38.11
44001;BME280;29660;42.892;24.710;2022-08-01T16:59:05;96378.56;;;25.06;38.29
44001;BME280;29660;42.892;24.710;2022-08-01T17:04:07;96577.47;;;26.13;39.08
44001;BME280;29660;42.892;24.710;2022-08-01T17:09:28;96190.91;;;23.60;39.10
44001;BME280;29660;42.892;24.710;2022-08-01T17:14:31;96429.66;;;24.98;39.48
44001;BME280;29660;42.892;24.710;2022-08-01T17:19:34;96607.94;;;26.08;39.66
44001;BME280;29660;42.892;24.710;2022-08-01T17:24:36;96564.00;;;25.60;39.74
44001;BME280;29660;42.892;24.710;2022-08-01T17:29:39;96386.16;;;24.31;40.04
44001;BME280;29660;42.892;24.710;2022-08-01T17:34:41;96448.47;;;24.57;40.26
44001;BME280;29660;42.892;24.710;2022-08-01T17:39:43;96590.22;;;25.36;40.82
44001;BME280;29660;42.892;24.710;2022-08-01T17:44:45;96612.81;;;25.40;40.99
44001;BME280;29660;42.892;24.710;2022-08-01T17:49:50;96654.56;;;25.44;41.66
44001;BME280;29660;42.892;24.710;2022-08-01T17:54:56;96647.19;;;25.19;42.19
44001;BME280;29660;42.892;24.710;2022-08-01T17:59:59;96396.19;;;23.41;42.25
44001;BME280;29660;42.892;24.710;2022-08-01T18:05:01;96420.25;;;23.32;43.00
44001;BME280;29660;42.892;24.710;2022-08-01T18:10:05;96616.69;;;24.42;43.17
44001;BME280;29660;42.892;24.710;2022-08-01T18:15:12;96668.13;;;24.58;43.41
44001;BME280;29660;42.892;24.710;2022-08-01T18:20:15;96624.78;;;24.14;43.70
44001;BME280;29660;42.892;24.710;2022-08-01T18:25:17;96673.44;;;24.22;43.97
44001;BME280;29660;42.892;24.710;2022-08-01T18:30:19;96723.41;;;24.41;44.57
44001;BME280;29660;42.892;24.710;2022-08-01T18:35:22;96723.69;;;24.29;44.82
44001;BME280;29660;42.892;24.710;2022-08-01T18:40:26;96488.97;;;22.52;44.99
44001;BME280;29660;42.892;24.710;2022-08-01T18:45:28;96744.97;;;23.98;45.80
44001;BME280;29660;42.892;24.710;2022-08-01T18:50:30;96563.59;;;22.65;46.07
44001;BME280;29660;42.892;24.710;2022-08-01T18:55:33;96710.22;;;23.29;47.66
44001;BME280;29660;42.892;24.710;2022-08-01T19:00:35;96507.22;;;21.73;49.88
44001;BME280;29660;42.892;24.710;2022-08-01T19:05:37;96705.09;;;22.83;49.86
44001;BME280;29660;42.892;24.710;2022-08-01T19:10:41;96534.00;;;21.45;51.38
44001;BME280;29660;42.892;24.710;2022-08-01T19:15:43;96792.13;;;22.83;53.08
44001;BME280;29660;42.892;24.710;2022-08-01T19:20:45;96625.13;;;21.49;55.76
44001;BME280;29660;42.892;24.710;2022-08-01T19:25:48;96747.81;;;22.15;56.08
44001;BME280;29660;42.892;24.710;2022-08-01T19:30:57;96799.91;;;22.21;59.36
44001;BME280;29660;42.892;24.710;2022-08-01T19:36:01;96757.00;;;21.80;59.36
44001;BME280;29660;42.892;24.710;2022-08-01T19:41:03;96801.56;;;22.02;59.92
44001;BME280;29660;42.892;24.710;2022-08-01T19:46:06;96543.34;;;20.22;58.58
44001;BME280;29660;42.892;24.710;2022-08-01T19:51:14;96598.78;;;20.51;61.37
44001;BME280;29660;42.892;24.710;2022-08-01T19:56:21;96562.38;;;20.06;62.59
44001;BME280;29660;42.892;24.710;2022-08-01T20:01:25;96810.00;;;21.48;61.76
44001;BME280;29660;42.892;24.710;2022-08-01T20:06:28;96627.63;;;20.20;62.99
44001;BME280;29660;42.892;24.710;2022-08-01T20:11:30;96588.06;;;19.73;64.12
44001;BME280;29660;42.892;24.710;2022-08-01T20:16:32;96826.78;;;21.11;64.96
44001;BME280;29660;42.892;24.710;2022-08-01T20:21:35;96602.50;;;19.61;65.49
44001;BME280;29660;42.892;24.710;2022-08-01T20:26:38;96538.56;;;18.99;66.02
44001;BME280;29660;42.892;24.710;2022-08-01T20:31:41;96839.28;;;20.77;67.87
44001;BME280;29660;42.892;24.710;2022-08-01T20:36:48;96825.09;;;20.64;68.46
44001;BME280;29660;42.892;24.710;2022-08-01T20:41:55;96564.38;;;18.80;69.58
44001;BME280;29660;42.892;24.710;2022-08-01T20:47:02;96803.19;;;20.18;68.96
44001;BME280;29660;42.892;24.710;2022-08-01T20:52:06;96836.00;;;20.32;69.15
44001;BME280;29660;42.892;24.710;2022-08-01T20:57:20;96837.56;;;20.33;69.76
44001;BME280;29660;42.892;24.710;2022-08-01T21:02:45;96618.69;;;18.91;70.27
44001;BME280;29660;42.892;24.710;2022-08-01T21:07:52;96569.75;;;18.49;70.20
44001;BME280;29660;42.892;24.710;2022-08-01T21:13:05;96608.81;;;18.67;70.99
44001;BME280;29660;42.892;24.710;2022-08-01T21:18:12;96801.63;;;19.82;72.54
44001;BME280;29660;42.892;24.710;2022-08-01T21:23:28;96706.25;;;19.06;71.99
44001;BME280;29660;42.892;24.710;2022-08-01T21:28:33;96789.16;;;19.61;73.36
44001;BME280;29660;42.892;24.710;2022-08-01T21:33:36;96792.44;;;19.55;73.31
44001;BME280;29660;42.892;24.710;2022-08-01T21:38:40;96572.59;;;18.08;72.38
44001;BME280;29660;42.892;24.710;2022-08-01T21:43:45;96710.53;;;18.75;74.20
44001;BME280;29660;42.892;24.710;2022-08-01T21:48:49;96850.03;;;19.40;75.63
44001;BME280;29660;42.892;24.710;2022-08-01T21:54:02;96828.09;;;19.29;77.06
44001;BME280;29660;42.892;24.710;2022-08-01T21:59:27;96835.59;;;19.20;78.19
44001;BME280;29660;42.892;24.710;2022-08-01T22:05:24;96837.81;;;19.02;80.01
44001;BME280;29660;42.892;24.710;2022-08-01T22:10:19;96818.09;;;18.85;78.84
44001;BME280;29660;42.892;24.710;2022-08-01T22:15:27;96832.00;;;19.00;79.17
44001;BME280;29660;42.892;24.710;2022-08-01T22:20:46;96599.22;;;17.41;80.51
44001;BME280;29660;42.892;24.710;2022-08-01T22:25:53;96836.78;;;18.91;79.66
44001;BME280;29660;42.892;24.710;2022-08-01T22:30:56;96619.31;;;17.44;80.79
44001;BME280;29660;42.892;24.710;2022-08-01T22:35:58;96791.53;;;18.47;81.83
44001;BME280;29660;42.892;24.710;2022-08-01T22:41:07;96629.56;;;17.26;81.92
44001;BME280;29660;42.892;24.710;2022-08-01T22:56:28;96762.53;;;17.91;84.93
44001;BME280;29660;42.892;24.710;2022-08-01T23:01:31;96607.81;;;16.95;83.75
44001;BME280;29660;42.892;24.710;2022-08-01T23:06:40;96838.28;;;18.35;84.29
44001;BME280;29660;42.892;24.710;2022-08-01T23:11:43;96575.13;;;16.72;83.85
44001;BME280;29660;42.892;24.710;2022-08-01T23:16:49;96813.88;;;18.32;85.16
44001;BME280;29660;42.892;24.710;2022-08-01T23:21:51;96569.16;;;16.54;85.98
44001;BME280;29660;42.892;24.710;2022-08-01T23:26:54;96589.13;;;16.53;85.25
44001;BME280;29660;42.892;24.710;2022-08-01T23:31:57;96570.91;;;16.25;86.58
44001;BME280;29660;42.892;24.710;2022-08-01T23:37:01;96737.03;;;17.28;87.04
44001;BME280;29660;42.892;24.710;2022-08-01T23:42:03;96571.25;;;16.11;88.86
44001;BME280;29660;42.892;24.710;2022-08-01T23:47:08;96798.91;;;17.49;89.26
44001;BME280;29660;42.892;24.710;2022-08-01T23:52:10;96545.72;;;15.84;87.74
44001;BME280;29660;42.892;24.710;2022-08-01T23:57:13;96614.88;;;16.29;87.79
